createdAt,value
2017-04-04T00:00:03.297Z,54.50
2017-04-04T00:01:02.831Z,54.50
2017-04-04T00:02:02.823Z,54.70
2017-04-04T00:03:02.471Z,54.60
2017-04-04T00:04:02.140Z,54.80
2017-04-04T00:05:01.677Z,54.80
2017-04-04T00:06:01.344Z,55.00
2017-04-04T00:07:00.920Z,54.90
2017-04-04T00:08:01.136Z,55.20
2017-04-04T00:09:01.380Z,55.20
2017-04-04T00:10:01.007Z,55.30
2017-04-04T00:11:00.589Z,55.30
2017-04-04T00:12:00.218Z,55.40
2017-04-04T00:12:59.852Z,55.50
2017-04-04T00:13:59.410Z,55.50
2017-04-04T00:14:58.943Z,55.60
2017-04-04T00:15:58.647Z,55.80
2017-04-04T00:16:58.690Z,56.00
2017-04-04T00:17:59.363Z,55.90
2017-04-04T00:18:59.071Z,56.10
2017-04-04T00:19:58.628Z,56.20
2017-04-04T00:20:58.200Z,56.30
2017-04-04T00:21:58.564Z,56.50
2017-04-04T00:22:58.155Z,56.40
2017-04-04T00:23:57.810Z,56.50
2017-04-04T00:24:58.087Z,56.60
2017-04-04T00:25:57.747Z,56.80
2017-04-04T00:26:57.347Z,56.90
2017-04-04T00:27:57.066Z,57.10
2017-04-04T00:28:56.634Z,57.10
2017-04-04T00:29:56.195Z,57.10
2017-04-04T00:30:55.748Z,57.20
2017-04-04T00:31:55.392Z,57.20
2017-04-04T00:32:55.667Z,57.30
2017-04-04T00:33:55.266Z,57.50
2017-04-04T00:34:54.906Z,57.70
2017-04-04T00:36:55.236Z,57.80
2017-04-04T00:37:55.655Z,58.40
2017-04-04T00:38:56.178Z,57.90
2017-04-04T00:39:56.780Z,58.00
2017-04-04T00:40:56.474Z,58.30
2017-04-04T00:41:56.084Z,58.40
2017-04-04T00:42:55.687Z,58.60
2017-04-04T00:43:55.988Z,58.90
2017-04-04T00:44:55.919Z,58.80
2017-04-04T00:45:56.200Z,58.90
2017-04-04T00:46:55.765Z,59.20
2017-04-04T00:47:55.717Z,59.30
2017-04-04T00:48:55.355Z,59.40
2017-04-04T00:49:55.295Z,59.50
2017-04-04T00:50:54.856Z,59.60
2017-04-04T00:51:54.439Z,59.90
2017-04-04T00:52:54.743Z,60.10
2017-04-04T00:53:55.044Z,60.50
2017-04-04T00:54:54.599Z,60.90
2017-04-04T00:55:54.330Z,61.10
2017-04-04T00:56:53.883Z,61.10
2017-04-04T00:57:53.450Z,61.10
2017-04-04T00:58:53.779Z,62.60
2017-04-04T00:59:54.068Z,62.70
2017-04-04T01:00:53.620Z,61.50
2017-04-04T01:01:53.168Z,61.80
2017-04-04T01:02:53.476Z,62.90
2017-04-04T01:03:53.027Z,61.80
2017-04-04T01:04:52.619Z,63.10
2017-04-04T01:05:52.255Z,63.30
2017-04-04T01:06:51.858Z,63.50
2017-04-04T01:07:51.450Z,62.40
2017-04-04T01:08:51.021Z,62.20
2017-04-04T01:09:50.668Z,63.30
2017-04-04T01:10:51.339Z,64.10
2017-04-04T01:11:50.927Z,63.90
2017-04-04T01:12:50.624Z,64.10
2017-04-04T01:13:50.183Z,64.30
2017-04-04T01:14:50.696Z,64.10
2017-04-04T01:15:50.336Z,64.40
2017-04-04T01:16:49.964Z,64.40
2017-04-04T01:17:49.868Z,64.80
2017-04-04T01:18:49.527Z,65.00
2017-04-04T01:19:49.115Z,65.30
2017-04-04T01:20:49.504Z,65.30
2017-04-04T01:21:49.036Z,65.60
2017-04-04T01:22:49.396Z,65.70
2017-04-04T01:23:48.973Z,65.80
2017-04-04T01:24:48.576Z,66.10
2017-04-04T01:25:48.268Z,66.00
2017-04-04T01:26:47.869Z,66.10
2017-04-04T01:27:47.544Z,66.40
2017-04-04T01:28:47.137Z,66.30
2017-04-04T01:29:46.689Z,66.50
2017-04-04T01:30:46.616Z,66.50
2017-04-04T01:31:46.191Z,66.60
2017-04-04T01:32:45.705Z,67.70
2017-04-04T01:33:45.300Z,66.90
2017-04-04T01:34:44.927Z,67.00
2017-04-04T01:35:44.791Z,66.80
2017-04-04T01:36:44.520Z,67.40
2017-04-04T01:37:44.128Z,67.40
2017-04-04T01:38:43.671Z,67.60
2017-04-04T01:39:43.233Z,67.90
2017-04-04T01:40:42.864Z,68.00
2017-04-04T01:41:42.496Z,67.90
2017-04-04T01:42:42.046Z,68.00
2017-04-04T01:43:42.074Z,68.20
2017-04-04T01:44:41.674Z,68.20
2017-04-04T01:45:41.225Z,68.20
2017-04-04T01:46:40.846Z,68.20
2017-04-04T01:47:40.783Z,68.60
2017-04-04T01:48:40.758Z,68.50
2017-04-04T01:49:40.397Z,68.50
2017-04-04T01:50:39.918Z,69.10
2017-04-04T01:51:39.531Z,69.10
2017-04-04T01:52:39.111Z,69.00
2017-04-04T01:53:38.635Z,69.20
2017-04-04T01:54:38.191Z,69.40
2017-04-04T01:55:37.803Z,69.30
2017-04-04T01:56:37.403Z,69.20
2017-04-04T01:57:36.978Z,69.40
2017-04-04T01:58:36.532Z,69.70
2017-04-04T01:59:36.087Z,70.20
2017-04-04T02:00:35.680Z,70.30
2017-04-04T02:01:35.243Z,70.20
2017-04-04T02:02:34.825Z,70.40
2017-04-04T02:03:34.812Z,70.30
2017-04-04T02:04:34.403Z,70.60
2017-04-04T02:05:33.968Z,70.40
2017-04-04T02:06:33.888Z,70.50
2017-04-04T02:07:33.866Z,70.70
2017-04-04T02:08:33.455Z,70.50
2017-04-04T02:09:33.072Z,70.40
2017-04-04T02:10:32.651Z,70.60
2017-04-04T02:11:33.275Z,70.60
2017-04-04T02:12:32.865Z,70.80
2017-04-04T02:13:32.496Z,71.00
2017-04-04T02:14:32.144Z,71.00
2017-04-04T02:15:31.699Z,71.10
2017-04-04T02:16:31.227Z,71.20
2017-04-04T02:17:31.592Z,71.30
2017-04-04T02:18:31.143Z,71.70
2017-04-04T02:19:31.410Z,71.60
2017-04-04T02:20:30.968Z,71.60
2017-04-04T02:21:30.554Z,71.80
2017-04-04T02:22:30.096Z,71.80
2017-04-04T02:23:30.063Z,71.90
2017-04-04T02:24:29.707Z,72.50
2017-04-04T02:25:29.271Z,72.40
2017-04-04T02:26:28.791Z,72.30
2017-04-04T02:27:28.723Z,72.20
2017-04-04T02:28:28.358Z,72.30
2017-04-04T02:29:28.247Z,72.80
2017-04-04T02:30:28.174Z,72.80
2017-04-04T02:31:27.862Z,72.90
2017-04-04T02:32:27.544Z,73.20
2017-04-04T02:33:27.903Z,73.50
2017-04-04T02:34:27.878Z,73.90
2017-04-04T02:35:28.145Z,74.10
2017-04-04T02:36:27.739Z,73.90
2017-04-04T02:37:27.435Z,74.00
2017-04-04T02:38:27.374Z,73.80
2017-04-04T02:39:27.332Z,74.40
2017-04-04T02:40:26.872Z,74.60
2017-04-04T02:41:26.439Z,74.80
2017-04-04T02:42:26.346Z,74.60
2017-04-04T02:43:25.921Z,74.50
2017-04-04T02:44:25.851Z,75.00
2017-04-04T02:45:25.432Z,75.50
2017-04-04T02:46:25.347Z,74.90
2017-04-04T02:47:24.935Z,74.80
2017-04-04T02:48:25.179Z,74.90
2017-04-04T02:49:24.755Z,74.90
2017-04-04T02:50:24.364Z,74.90
2017-04-04T02:51:24.279Z,74.80
2017-04-04T02:52:23.875Z,74.80
2017-04-04T02:53:23.555Z,75.00
2017-04-04T02:54:23.135Z,75.00
2017-04-04T02:55:22.699Z,75.00
2017-04-04T02:56:22.679Z,75.20
2017-04-04T02:57:22.261Z,75.20
2017-04-04T02:58:21.803Z,75.60
2017-04-04T02:59:21.425Z,75.70
2017-04-04T03:00:21.370Z,75.70
2017-04-04T03:01:20.987Z,75.80
2017-04-04T03:02:21.286Z,75.90
2017-04-04T03:04:21.140Z,75.80
2017-04-04T03:05:20.726Z,76.00
2017-04-04T03:06:20.284Z,76.40
2017-04-04T03:07:19.879Z,76.20
2017-04-04T03:08:19.435Z,76.20
2017-04-04T03:09:18.988Z,76.50
2017-04-04T03:10:18.908Z,76.70
2017-04-04T03:11:19.492Z,76.80
2017-04-04T03:12:19.043Z,77.10
2017-04-04T03:13:18.660Z,77.10
2017-04-04T03:14:18.219Z,77.00
2017-04-04T03:15:18.715Z,76.80
2017-04-04T03:16:18.309Z,76.70
2017-04-04T03:17:18.011Z,76.80
2017-04-04T03:18:18.192Z,77.00
2017-04-04T03:19:17.918Z,76.90
2017-04-04T03:20:17.476Z,77.00
2017-04-04T03:21:17.227Z,77.10
2017-04-04T03:23:16.691Z,76.90
2017-04-04T03:24:16.379Z,77.00
2017-04-04T03:25:16.120Z,77.10
2017-04-04T03:26:15.678Z,77.10
2017-04-04T03:27:15.255Z,77.40
2017-04-04T03:28:14.891Z,77.40
2017-04-04T03:29:14.792Z,77.40
2017-04-04T03:30:14.438Z,77.70
2017-04-04T03:31:14.107Z,77.90
2017-04-04T03:32:13.660Z,77.90
2017-04-04T03:33:13.247Z,77.70
2017-04-04T03:34:12.941Z,77.80
2017-04-04T03:35:12.492Z,77.80
2017-04-04T03:36:12.083Z,78.50
2017-04-04T03:37:12.047Z,78.50
2017-04-04T03:38:11.622Z,78.30
2017-04-04T03:39:11.217Z,78.20
2017-04-04T03:40:10.754Z,78.10
2017-04-04T03:41:10.300Z,78.60
2017-04-04T03:42:10.574Z,78.50
2017-04-04T03:43:10.180Z,78.30
2017-04-04T03:44:09.782Z,78.30
2017-04-04T03:45:09.331Z,78.30
2017-04-04T03:46:09.231Z,78.60
2017-04-04T03:47:08.851Z,78.50
2017-04-04T03:48:08.435Z,78.70
2017-04-04T03:49:07.967Z,79.10
2017-04-04T03:50:07.504Z,79.30
2017-04-04T03:51:07.519Z,79.00
2017-04-04T03:52:07.067Z,79.10
2017-04-04T03:53:06.632Z,79.10
2017-04-04T03:54:07.287Z,78.90
2017-04-04T03:55:06.825Z,79.30
2017-04-04T03:56:06.427Z,79.50
2017-04-04T03:57:06.036Z,79.40
2017-04-04T03:58:05.566Z,79.20
2017-04-04T03:59:05.828Z,79.00
2017-04-04T04:00:05.420Z,79.00
2017-04-04T04:01:04.999Z,79.00
2017-04-04T04:02:04.902Z,79.00
2017-04-04T04:03:04.508Z,79.10
2017-04-04T04:04:04.079Z,79.90
2017-04-04T04:05:03.696Z,80.10
2017-04-04T04:06:03.269Z,79.80
2017-04-04T04:07:03.346Z,79.80
2017-04-04T04:08:03.601Z,79.70
2017-04-04T04:09:03.262Z,79.60
2017-04-04T04:10:02.799Z,79.80
2017-04-04T04:11:02.332Z,80.40
2017-04-04T04:12:01.891Z,80.50
2017-04-04T04:13:01.561Z,80.50
2017-04-04T04:14:01.132Z,80.60
2017-04-04T04:15:00.684Z,80.60
2017-04-04T04:16:00.235Z,80.40
2017-04-04T04:17:00.575Z,80.80
2017-04-04T04:18:00.196Z,81.00
2017-04-04T04:18:59.765Z,80.90
2017-04-04T04:19:59.319Z,80.60
2017-04-04T04:20:59.243Z,80.20
2017-04-04T04:21:59.491Z,80.90
2017-04-04T04:22:59.062Z,82.50
2017-04-04T04:23:59.590Z,82.70
2017-04-04T04:25:00.020Z,83.00
2017-04-04T04:25:59.607Z,84.00
2017-04-04T04:27:00.085Z,83.90
2017-04-04T04:27:59.637Z,83.00
2017-04-04T04:28:59.345Z,82.90
2017-04-04T04:29:58.917Z,83.00
2017-04-04T04:30:58.504Z,82.90
2017-04-04T04:31:58.149Z,83.20
2017-04-04T04:32:57.688Z,82.80
2017-04-04T04:33:57.225Z,82.20
2017-04-04T04:34:56.771Z,82.00
2017-04-04T04:35:56.305Z,82.50
2017-04-04T04:36:56.591Z,82.90
2017-04-04T04:37:56.125Z,83.10
2017-04-04T04:38:55.667Z,82.50
2017-04-04T04:39:55.231Z,82.40
2017-04-04T04:40:54.765Z,82.40
2017-04-04T04:41:54.343Z,82.60
2017-04-04T04:42:53.896Z,82.50
2017-04-04T04:43:53.459Z,82.50
2017-04-04T04:44:53.082Z,82.60
2017-04-04T04:45:52.626Z,82.80
2017-04-04T04:46:52.200Z,82.60
2017-04-04T04:47:51.762Z,82.50
2017-04-04T04:48:51.313Z,85.20
2017-04-04T04:49:51.935Z,82.10
2017-04-04T04:50:51.458Z,81.90
2017-04-04T04:51:51.027Z,81.70
2017-04-04T04:52:50.588Z,82.40
2017-04-04T04:53:50.223Z,82.30
2017-04-04T04:54:49.791Z,82.50
2017-04-04T04:55:49.340Z,82.60
2017-04-04T04:56:48.879Z,82.40
2017-04-04T04:57:48.605Z,82.30
2017-04-04T04:58:48.176Z,82.30
2017-04-04T04:59:48.633Z,82.10
2017-04-04T05:00:48.187Z,82.00
2017-04-04T05:01:48.460Z,82.50
2017-04-04T05:02:48.433Z,81.80
2017-04-04T05:03:47.971Z,81.80
2017-04-04T05:04:48.601Z,81.70
2017-04-04T05:05:48.192Z,81.50
2017-04-04T05:06:47.731Z,81.40
2017-04-04T05:07:47.345Z,81.40
2017-04-04T05:08:46.931Z,81.60
2017-04-04T05:09:46.491Z,82.00
2017-04-04T05:10:46.040Z,82.30
2017-04-04T05:11:45.602Z,82.40
2017-04-04T05:12:45.947Z,82.30
2017-04-04T05:13:45.545Z,81.90
2017-04-04T05:14:45.075Z,81.50
2017-04-04T05:15:45.436Z,81.30
2017-04-04T05:16:45.748Z,81.00
2017-04-04T05:17:46.037Z,81.10
2017-04-04T05:18:45.714Z,81.20
2017-04-04T05:19:45.304Z,81.10
2017-04-04T05:20:45.018Z,81.30
2017-04-04T05:21:45.332Z,81.30
2017-04-04T05:22:44.903Z,81.50
2017-04-04T05:23:44.535Z,81.40
2017-04-04T05:24:44.115Z,81.20
2017-04-04T05:25:43.800Z,81.30
2017-04-04T05:26:43.371Z,81.40
2017-04-04T05:27:43.161Z,81.40
2017-04-04T05:28:43.489Z,81.30
2017-04-04T05:30:43.583Z,81.20
2017-04-04T05:32:43.032Z,81.00
2017-04-04T05:33:42.626Z,80.90
2017-04-04T05:34:42.202Z,81.00
2017-04-04T05:35:42.439Z,81.00
2017-04-04T05:36:42.007Z,80.90
2017-04-04T05:37:42.355Z,81.10
2017-04-04T05:38:41.942Z,81.30
2017-04-04T05:39:41.654Z,81.50
2017-04-04T05:40:41.219Z,81.60
2017-04-04T05:41:41.534Z,81.70
2017-04-04T05:42:41.161Z,81.80
2017-04-04T05:43:40.849Z,81.80
2017-04-04T05:44:40.430Z,82.50
2017-04-04T05:45:40.839Z,83.40
2017-04-04T05:46:41.143Z,82.60
2017-04-04T05:48:40.636Z,82.20
2017-04-04T05:49:40.362Z,81.90
2017-04-04T05:50:40.311Z,82.20
2017-04-04T05:51:39.860Z,82.20
2017-04-04T05:52:39.460Z,82.00
2017-04-04T05:53:39.076Z,81.80
2017-04-04T05:54:38.624Z,81.80
2017-04-04T05:55:38.212Z,81.80
2017-04-04T05:56:37.854Z,81.80
2017-04-04T05:57:37.380Z,82.00
2017-04-04T05:58:36.936Z,82.00
2017-04-04T05:59:36.487Z,81.90
2017-04-04T06:00:36.043Z,81.90
2017-04-04T06:01:35.647Z,81.70
2017-04-04T06:02:35.195Z,81.90
2017-04-04T06:03:34.775Z,82.10
2017-04-04T06:04:34.441Z,82.20
2017-04-04T06:05:33.987Z,82.20
2017-04-04T06:06:33.803Z,82.20
2017-04-04T06:07:33.809Z,82.30
2017-04-04T06:08:33.353Z,82.40
2017-04-04T06:09:32.882Z,82.70
2017-04-04T06:10:32.416Z,82.80
2017-04-04T06:11:31.960Z,82.80
2017-04-04T06:12:31.505Z,83.00
2017-04-04T06:13:31.043Z,83.10
2017-04-04T06:14:30.598Z,83.00
2017-04-04T06:15:30.219Z,83.20
2017-04-04T06:16:29.783Z,82.90
2017-04-04T06:17:29.424Z,82.90
2017-04-04T06:18:29.363Z,83.30
2017-04-04T06:19:28.927Z,84.20
2017-04-04T06:20:28.979Z,83.70
2017-04-04T06:21:28.528Z,83.30
2017-04-04T06:22:28.279Z,83.10
2017-04-04T06:23:27.867Z,82.90
2017-04-04T06:24:28.112Z,82.90
2017-04-04T06:25:27.680Z,82.80
2017-04-04T06:26:27.223Z,82.70
2017-04-04T06:27:26.813Z,82.40
2017-04-04T06:28:26.351Z,82.40
2017-04-04T06:29:25.916Z,82.40
2017-04-04T06:30:25.533Z,82.30
2017-04-04T06:31:25.118Z,82.40
2017-04-04T06:32:25.231Z,82.40
2017-04-04T06:33:24.750Z,82.30
2017-04-04T06:34:24.655Z,82.30
2017-04-04T06:35:24.226Z,82.10
2017-04-04T06:36:24.177Z,81.90
2017-04-04T06:37:23.731Z,82.00
2017-04-04T06:38:23.292Z,82.00
2017-04-04T06:39:22.877Z,82.10
2017-04-04T06:40:22.440Z,81.80
2017-04-04T06:41:22.000Z,82.10
2017-04-04T06:42:21.534Z,81.90
2017-04-04T06:43:21.246Z,81.50
2017-04-04T06:44:20.854Z,81.50
2017-04-04T06:45:20.842Z,81.30
2017-04-04T06:46:20.445Z,81.10
2017-04-04T06:47:20.030Z,81.20
2017-04-04T06:48:19.950Z,81.50
2017-04-04T06:49:19.916Z,82.80
2017-04-04T06:50:19.999Z,82.70
2017-04-04T06:51:19.794Z,82.80
2017-04-04T06:53:19.975Z,82.20
2017-04-04T06:54:19.639Z,82.70
2017-04-04T06:55:20.135Z,82.20
2017-04-04T06:56:19.685Z,81.80
2017-04-04T06:57:19.314Z,81.50
2017-04-04T06:58:18.895Z,81.20
2017-04-04T06:59:18.446Z,81.10
2017-04-04T07:00:18.922Z,81.00
2017-04-04T07:01:18.711Z,81.00
2017-04-04T07:02:19.995Z,80.90
2017-04-04T07:03:20.223Z,80.60
2017-04-04T07:04:19.823Z,79.90
2017-04-04T07:05:19.387Z,80.20
2017-04-04T07:06:18.991Z,80.10
2017-04-04T07:07:18.556Z,80.00
2017-04-04T07:08:18.154Z,80.30
2017-04-04T07:09:17.856Z,80.10
2017-04-04T07:10:17.751Z,80.00
2017-04-04T07:11:17.300Z,80.00
2017-04-04T07:12:16.874Z,79.90
2017-04-04T07:13:17.141Z,79.70
2017-04-04T07:14:16.775Z,79.80
2017-04-04T07:15:17.027Z,79.80
2017-04-04T07:16:16.947Z,79.90
2017-04-04T07:17:16.852Z,79.90
2017-04-04T07:18:16.465Z,80.10
2017-04-04T07:19:16.012Z,79.80
2017-04-04T07:20:15.979Z,79.70
2017-04-04T07:21:15.579Z,79.30
2017-04-04T07:22:15.297Z,79.30
2017-04-04T07:23:15.927Z,79.10
2017-04-04T07:24:15.901Z,78.70
2017-04-04T07:25:15.885Z,78.70
2017-04-04T07:26:15.825Z,78.40
2017-04-04T07:27:16.053Z,78.40
2017-04-04T07:28:16.340Z,78.30
2017-04-04T07:29:16.283Z,78.20
2017-04-04T07:30:15.854Z,78.20
2017-04-04T07:31:15.507Z,78.10
2017-04-04T07:32:15.795Z,78.00
2017-04-04T07:33:15.347Z,78.20
2017-04-04T07:34:14.915Z,78.00
2017-04-04T07:35:15.309Z,77.80
2017-04-04T07:36:15.025Z,78.00
2017-04-04T07:37:15.051Z,77.90
2017-04-04T07:38:14.615Z,77.70
2017-04-04T07:39:15.316Z,77.80
2017-04-04T07:40:15.591Z,78.00
2017-04-04T07:41:15.163Z,77.70
2017-04-04T07:42:14.740Z,77.70
2017-04-04T07:43:14.347Z,77.30
2017-04-04T07:44:13.907Z,77.50
2017-04-04T07:45:13.948Z,77.50
2017-04-04T07:46:14.208Z,77.40
2017-04-04T07:47:13.789Z,77.10
2017-04-04T07:48:13.287Z,77.10
2017-04-04T07:49:12.849Z,77.00
2017-04-04T07:50:12.475Z,77.20
2017-04-04T07:51:12.022Z,76.90
2017-04-04T07:52:11.634Z,76.80
2017-04-04T07:53:11.198Z,76.00
2017-04-04T07:54:10.739Z,75.90
2017-04-04T07:55:11.012Z,76.00
2017-04-04T07:56:10.748Z,76.00
2017-04-04T07:57:10.339Z,76.20
2017-04-04T07:58:09.879Z,75.80
2017-04-04T07:59:09.443Z,75.70
2017-04-04T08:00:09.355Z,74.10
2017-04-04T08:01:09.067Z,73.70
2017-04-04T08:02:09.012Z,73.40
2017-04-04T08:03:08.659Z,73.60
2017-04-04T08:04:08.216Z,73.50
2017-04-04T08:05:07.793Z,73.00
2017-04-04T08:06:07.710Z,72.40
2017-04-04T08:07:07.307Z,72.60
2017-04-04T08:08:06.897Z,72.00
2017-04-04T08:09:06.532Z,71.90
2017-04-04T08:10:06.173Z,72.30
2017-04-04T08:11:05.712Z,71.40
2017-04-04T08:12:05.308Z,72.00
2017-04-04T08:13:04.936Z,71.10
2017-04-04T08:14:04.499Z,70.90
2017-04-04T08:15:04.174Z,70.80
2017-04-04T08:16:03.737Z,70.90
2017-04-04T08:17:03.744Z,71.20
2017-04-04T08:18:03.359Z,71.00
2017-04-04T08:19:02.937Z,71.40
2017-04-04T08:20:02.524Z,71.10
2017-04-04T08:21:02.209Z,70.70
2017-04-04T08:22:01.745Z,70.30
2017-04-04T08:23:01.331Z,69.90
2017-04-04T08:24:00.890Z,70.00
2017-04-04T08:25:00.424Z,69.40
2017-04-04T08:26:00.016Z,69.80
2017-04-04T08:26:59.565Z,69.90
2017-04-04T08:27:59.098Z,69.50
2017-04-04T08:28:58.752Z,69.90
2017-04-04T08:29:58.363Z,70.00
2017-04-04T08:30:58.052Z,69.80
2017-04-04T08:31:58.339Z,69.90
2017-04-04T08:32:57.904Z,70.60
2017-04-04T08:33:57.897Z,69.80
2017-04-04T08:34:57.463Z,69.70
2017-04-04T08:35:57.042Z,69.50
2017-04-04T08:36:57.363Z,69.50
2017-04-04T08:37:57.703Z,69.60
2017-04-04T08:38:57.271Z,70.00
2017-04-04T08:39:57.599Z,69.60
2017-04-04T08:40:57.914Z,69.60
2017-04-04T08:41:58.407Z,68.80
2017-04-04T08:42:58.766Z,69.60
2017-04-04T08:43:58.369Z,69.20
2017-04-04T08:44:57.944Z,68.60
2017-04-04T08:45:57.622Z,68.10
2017-04-04T08:46:57.939Z,68.50
2017-04-04T08:47:58.369Z,68.10
2017-04-04T08:48:58.821Z,68.10
2017-04-04T08:49:58.496Z,67.60
2017-04-04T08:50:58.118Z,67.30
2017-04-04T08:51:57.707Z,67.70
2017-04-04T08:52:57.394Z,68.00
2017-04-04T08:53:57.035Z,68.50
2017-04-04T08:54:56.856Z,67.20
2017-04-04T08:55:56.541Z,66.70
2017-04-04T08:56:56.488Z,67.00
2017-04-04T08:57:56.808Z,67.70
2017-04-04T08:58:56.459Z,67.70
2017-04-04T08:59:56.115Z,66.90
2017-04-04T09:00:55.800Z,66.40
2017-04-04T09:01:56.190Z,66.80
2017-04-04T09:02:55.880Z,67.20
2017-04-04T09:03:55.895Z,66.20
2017-04-04T09:04:55.544Z,66.40
2017-04-04T09:05:56.771Z,66.20
2017-04-04T09:06:56.531Z,65.60
2017-04-04T09:07:56.138Z,66.30
2017-04-04T09:08:55.738Z,65.90
2017-04-04T09:09:55.308Z,65.40
2017-04-04T09:10:55.047Z,65.60
2017-04-04T09:11:54.642Z,65.30
2017-04-04T09:12:54.204Z,65.50
2017-04-04T09:13:53.823Z,65.70
2017-04-04T09:14:53.381Z,65.90
2017-04-04T09:15:53.672Z,66.00
2017-04-04T09:16:53.248Z,66.40
2017-04-04T09:17:52.883Z,65.40
2017-04-04T09:18:52.416Z,64.90
2017-04-04T09:19:52.039Z,64.50
2017-04-04T09:20:52.064Z,64.50
2017-04-04T09:21:52.000Z,63.70
2017-04-04T09:22:51.647Z,64.20
2017-04-04T09:23:52.286Z,64.40
2017-04-04T09:24:51.970Z,64.00
2017-04-04T09:25:51.895Z,63.60
2017-04-04T09:26:51.552Z,62.80
2017-04-04T09:27:51.108Z,63.50
2017-04-04T09:28:50.705Z,62.70
2017-04-04T09:29:50.350Z,63.60
2017-04-04T09:30:49.937Z,63.40
2017-04-04T09:31:50.163Z,62.90
2017-04-04T09:32:49.736Z,63.50
2017-04-04T09:33:49.287Z,63.00
2017-04-04T09:34:48.888Z,63.20
2017-04-04T09:35:48.499Z,63.10
2017-04-04T09:36:48.045Z,62.60
2017-04-04T09:37:47.646Z,61.90
2017-04-04T09:38:47.229Z,62.30
2017-04-04T09:39:46.844Z,61.40
2017-04-04T09:40:46.461Z,60.80
2017-04-04T09:41:46.224Z,61.40
2017-04-04T09:42:45.724Z,60.90
2017-04-04T09:43:45.301Z,61.00
2017-04-04T09:44:44.827Z,61.50
2017-04-04T09:45:44.393Z,61.00
2017-04-04T09:46:43.943Z,60.10
2017-04-04T09:47:43.515Z,61.20
2017-04-04T09:48:43.074Z,61.00
2017-04-04T09:49:42.635Z,59.40
2017-04-04T09:50:42.187Z,59.00
2017-04-04T09:51:41.876Z,59.90
2017-04-04T09:52:41.490Z,59.70
2017-04-04T09:53:41.104Z,60.10
2017-04-04T09:54:40.671Z,59.60
2017-04-04T09:55:40.270Z,59.10
2017-04-04T09:56:39.910Z,58.90
2017-04-04T09:57:39.463Z,60.00
2017-04-04T09:58:39.222Z,59.70
2017-04-04T09:59:39.504Z,59.00
2017-04-04T10:00:39.139Z,58.00
2017-04-04T10:01:39.460Z,57.60
2017-04-04T10:02:39.057Z,57.70
2017-04-04T10:03:39.364Z,57.30
2017-04-04T10:04:39.696Z,57.60
2017-04-04T10:05:39.416Z,56.90
2017-04-04T10:06:39.059Z,57.60
2017-04-04T10:08:39.645Z,56.60
2017-04-04T10:09:39.260Z,56.70
2017-04-04T10:10:39.471Z,57.40
2017-04-04T10:11:39.106Z,55.90
2017-04-04T10:12:39.642Z,56.20
2017-04-04T10:13:39.227Z,56.50
2017-04-04T10:14:39.639Z,55.50
2017-04-04T10:15:39.984Z,55.50
2017-04-04T10:16:39.560Z,55.70
2017-04-04T10:17:39.851Z,55.40
2017-04-04T10:18:39.606Z,55.40
2017-04-04T10:19:39.155Z,56.60
2017-04-04T10:22:39.512Z,54.70
2017-04-04T10:23:39.275Z,54.30
2017-04-04T10:24:38.848Z,54.60
2017-04-04T10:25:38.403Z,54.40
2017-04-04T10:27:38.624Z,55.00
2017-04-04T10:28:39.434Z,55.70
2017-04-04T10:30:38.987Z,56.40
2017-04-04T10:31:38.719Z,57.10
2017-04-04T10:32:38.362Z,57.20
2017-04-04T10:33:38.234Z,57.30
2017-04-04T10:34:37.787Z,57.10
2017-04-04T10:35:37.448Z,56.40
2017-04-04T10:36:37.743Z,56.00
2017-04-04T10:37:37.719Z,55.60
2017-04-04T10:38:37.351Z,54.50
2017-04-04T10:39:37.338Z,53.60
2017-04-04T10:40:36.977Z,53.20
2017-04-04T10:41:37.289Z,51.50
2017-04-04T10:42:37.575Z,52.60
2017-04-04T10:43:37.160Z,53.10
2017-04-04T10:44:36.740Z,52.20
2017-04-04T10:45:36.371Z,52.40
2017-04-04T10:46:36.048Z,52.80
2017-04-04T10:47:35.640Z,52.30
2017-04-04T10:48:35.225Z,52.20
2017-04-04T10:49:34.904Z,52.00
2017-04-04T10:50:34.512Z,53.00
2017-04-04T10:51:34.284Z,53.70
2017-04-04T10:52:34.701Z,53.60
2017-04-04T10:53:35.330Z,53.40
2017-04-04T10:54:35.695Z,53.20
2017-04-04T10:55:35.532Z,52.50
2017-04-04T10:56:35.141Z,53.00
2017-04-04T10:57:35.463Z,53.30
2017-04-04T10:58:35.975Z,52.90
2017-04-04T10:59:36.312Z,52.10
2017-04-04T11:00:35.911Z,52.20
2017-04-04T11:01:36.450Z,51.60
2017-04-04T11:02:36.045Z,52.50
2017-04-04T11:03:35.683Z,50.60
2017-04-04T11:04:35.311Z,51.00
2017-04-04T11:05:36.028Z,51.80
2017-04-04T11:06:36.447Z,51.80
2017-04-04T11:07:36.911Z,51.90
2017-04-04T11:08:36.459Z,50.10
2017-04-04T11:09:36.847Z,48.90
2017-04-04T11:10:36.427Z,50.10
2017-04-04T11:11:36.049Z,49.70
2017-04-04T11:12:35.611Z,50.30
2017-04-04T11:13:35.255Z,49.70
2017-04-04T11:14:34.831Z,49.50
2017-04-04T11:15:34.461Z,49.60
2017-04-04T11:16:34.720Z,48.80
2017-04-04T11:17:34.823Z,47.80
2017-04-04T11:18:34.407Z,45.60
2017-04-04T11:19:33.975Z,45.50
2017-04-04T11:20:34.255Z,45.30
2017-04-04T11:21:33.831Z,44.90
2017-04-04T11:22:33.476Z,45.20
2017-04-04T11:23:33.047Z,45.40
2017-04-04T11:24:32.663Z,44.00
2017-04-04T11:25:32.312Z,44.20
2017-04-04T11:26:31.890Z,43.50
2017-04-04T11:27:32.616Z,43.70
2017-04-04T11:28:32.947Z,44.50
2017-04-04T11:29:32.925Z,44.70
2017-04-04T11:30:32.511Z,42.50
2017-04-04T11:31:32.117Z,40.60
2017-04-04T11:32:31.717Z,40.60
2017-04-04T11:33:31.335Z,40.90
2017-04-04T11:34:30.922Z,40.20
2017-04-04T11:35:30.532Z,40.50
2017-04-04T11:36:30.103Z,38.70
2017-04-04T11:37:29.768Z,36.20
2017-04-04T11:38:29.315Z,38.60
2017-04-04T11:39:28.961Z,38.10
2017-04-04T11:40:28.884Z,37.60
2017-04-04T11:41:31.193Z,38.60
2017-04-04T11:42:32.230Z,39.60
2017-04-04T11:43:33.316Z,39.60
2017-04-04T11:44:34.563Z,40.40
2017-04-04T11:45:35.648Z,41.10
2017-04-04T11:46:36.929Z,40.80
2017-04-04T11:47:37.983Z,41.40
2017-04-04T11:48:39.224Z,41.60
2017-04-04T11:49:40.262Z,42.30
2017-04-04T11:50:41.298Z,44.80
2017-04-04T11:51:42.414Z,46.70
2017-04-04T11:52:43.490Z,47.40
2017-04-04T11:53:44.555Z,47.50
2017-04-04T11:54:46.031Z,46.60
2017-04-04T11:55:47.118Z,45.90
2017-04-04T11:56:48.193Z,44.80
2017-04-04T11:57:49.350Z,44.10
2017-04-04T11:58:50.225Z,42.00
2017-04-04T11:59:51.540Z,40.70
2017-04-04T12:00:52.488Z,40.00
2017-04-04T12:01:53.618Z,38.10
2017-04-04T12:02:54.916Z,38.20
2017-04-04T12:03:55.978Z,35.50
2017-04-04T12:04:55.764Z,36.50
2017-04-04T12:05:55.352Z,39.20
2017-04-04T12:06:54.879Z,39.40
2017-04-04T12:07:54.491Z,41.10
2017-04-04T12:08:54.044Z,40.50
2017-04-04T12:09:53.956Z,40.30
2017-04-04T12:10:53.471Z,40.50
2017-04-04T12:11:53.023Z,39.10
2017-04-04T12:12:52.573Z,37.80
2017-04-04T12:13:52.255Z,37.60
2017-04-04T12:14:51.780Z,37.90
2017-04-04T12:15:51.387Z,36.30
2017-04-04T12:16:50.963Z,36.50
2017-04-04T12:17:50.523Z,36.80
2017-04-04T12:18:50.056Z,35.10
2017-04-04T12:19:49.715Z,36.00
2017-04-04T12:20:49.293Z,35.90
2017-04-04T12:21:48.885Z,35.40
2017-04-04T12:22:48.412Z,35.30
2017-04-04T12:23:48.011Z,35.30
2017-04-04T12:24:47.612Z,35.50
2017-04-04T12:25:47.162Z,35.00
2017-04-04T12:26:47.149Z,35.10
2017-04-04T12:27:46.709Z,34.70
2017-04-04T12:28:46.340Z,34.60
2017-04-04T12:29:45.853Z,35.40
2017-04-04T12:30:45.460Z,35.40
2017-04-04T12:31:45.039Z,34.80
2017-04-04T12:32:44.948Z,34.90
2017-04-04T12:33:44.503Z,35.00
2017-04-04T12:34:44.809Z,34.80
2017-04-04T12:35:44.340Z,34.40
2017-04-04T12:36:43.871Z,34.40
2017-04-04T12:37:43.456Z,34.10
2017-04-04T12:38:43.034Z,34.50
2017-04-04T12:39:42.599Z,34.40
2017-04-04T12:40:42.237Z,34.80
2017-04-04T12:41:41.768Z,35.10
2017-04-04T12:42:41.777Z,35.10
2017-04-04T12:43:41.331Z,35.30
2017-04-04T12:44:40.871Z,35.20
2017-04-04T12:45:40.437Z,35.00
2017-04-04T12:46:40.060Z,35.90
2017-04-04T12:47:39.635Z,35.20
2017-04-04T12:48:39.224Z,35.20
2017-04-04T12:49:38.784Z,35.20
2017-04-04T12:50:38.407Z,35.90
2017-04-04T12:51:38.033Z,36.40
2017-04-04T12:52:37.585Z,36.90
2017-04-04T12:53:37.197Z,37.50
2017-04-04T12:54:36.789Z,38.00
2017-04-04T12:55:36.375Z,38.60
2017-04-04T12:56:35.968Z,39.00
2017-04-04T12:57:35.570Z,40.40
2017-04-04T12:58:35.188Z,41.00
2017-04-04T12:59:34.775Z,41.10
2017-04-04T13:00:34.463Z,41.70
2017-04-04T13:01:34.165Z,40.60